sensor_id;sensor_type;location;lat;lon;timestamp;pressure;altitude;pressure_sealevel;temperature;humidity
72685;BME280;61365;52.162;4.500;2022-11-30T00:01:17;102289.34;;;7.92;88.63
72685;BME280;61365;52.162;4.500;2022-11-30T00:03:46;102285.66;;;7.87;89.65
72685;BME280;61365;52.162;4.500;2022-11-30T00:06:15;102298.63;;;7.84;89.87
72685;BME280;61365;52.162;4.500;2022-11-30T00:08:51;102297.72;;;7.83;89.26
72685;BME280;61365;52.162;4.500;2022-11-30T00:11:23;102297.69;;;7.81;88.89
72685;BME280;61365;52.162;4.500;2022-11-30T00:13:51;102297.44;;;7.74;88.48
72685;BME280;61365;52.162;4.500;2022-11-30T00:16:17;102297.53;;;7.77;89.35
72685;BME280;61365;52.162;4.500;2022-11-30T00:18:44;102296.81;;;7.81;88.56
72685;BME280;61365;52.162;4.500;2022-11-30T00:21:12;102296.38;;;7.94;87.82
72685;BME280;61365;52.162;4.500;2022-11-30T00:23:41;102297.09;;;7.90;87.97
72685;BME280;61365;52.162;4.500;2022-11-30T00:26:12;102301.19;;;7.82;88.67
72685;BME280;61365;52.162;4.500;2022-11-30T00:28:40;102303.91;;;7.85;89.47
72685;BME280;61365;52.162;4.500;2022-11-30T00:31:10;102303.91;;;7.85;90.16
72685;BME280;61365;52.162;4.500;2022-11-30T00:33:39;102301.56;;;7.93;90.71
72685;BME280;61365;52.162;4.500;2022-11-30T00:36:09;102294.56;;;7.92;90.19
72685;BME280;61365;52.162;4.500;2022-11-30T00:38:37;102300.53;;;7.88;89.94
72685;BME280;61365;52.162;4.500;2022-11-30T00:41:04;102297.44;;;8.00;90.22
72685;BME280;61365;52.162;4.500;2022-11-30T00:43:31;102293.06;;;8.00;90.17
72685;BME280;61365;52.162;4.500;2022-11-30T00:45:58;102296.41;;;7.96;90.46
72685;BME280;61365;52.162;4.500;2022-11-30T00:51:52;102287.66;;;7.94;90.20
72685;BME280;61365;52.162;4.500;2022-11-30T00:54:18;102286.03;;;7.97;89.95
72685;BME280;61365;52.162;4.500;2022-11-30T00:56:45;102286.03;;;7.97;90.07
72685;BME280;61365;52.162;4.500;2022-11-30T00:59:11;102280.72;;;7.96;90.29
72685;BME280;61365;52.162;4.500;2022-11-30T01:01:37;102283.41;;;7.97;90.94
72685;BME280;61365;52.162;4.500;2022-11-30T01:04:04;102284.28;;;7.98;90.31
72685;BME280;61365;52.162;4.500;2022-11-30T01:06:30;102280.69;;;7.94;90.10
72685;BME280;61365;52.162;4.500;2022-11-30T01:08:57;102284.28;;;7.98;90.29
72685;BME280;61365;52.162;4.500;2022-11-30T01:11:26;102293.97;;;8.01;90.54
72685;BME280;61365;52.162;4.500;2022-11-30T01:13:55;102287.94;;;8.03;90.22
72685;BME280;61365;52.162;4.500;2022-11-30T01:16:25;102291.34;;;8.01;89.74
72685;BME280;61365;52.162;4.500;2022-11-30T01:18:54;102299.47;;;8.10;89.46
72685;BME280;61365;52.162;4.500;2022-11-30T01:21:24;102289.00;;;8.08;89.42
72685;BME280;61365;52.162;4.500;2022-11-30T01:23:53;102290.53;;;8.02;89.40
72685;BME280;61365;52.162;4.500;2022-11-30T01:26:19;102290.22;;;7.92;90.03
72685;BME280;61365;52.162;4.500;2022-11-30T01:28:54;102294.47;;;7.89;90.79
72685;BME280;61365;52.162;4.500;2022-11-30T01:31:22;102297.66;;;7.80;89.67
72685;BME280;61365;52.162;4.500;2022-11-30T01:33:51;102299.34;;;7.79;90.42
72685;BME280;61365;52.162;4.500;2022-11-30T01:36:22;102298.41;;;7.77;90.46
72685;BME280;61365;52.162;4.500;2022-11-30T01:38:55;102293.81;;;7.70;90.60
72685;BME280;61365;52.162;4.500;2022-11-30T01:41:25;102288.31;;;7.62;90.77
72685;BME280;61365;52.162;4.500;2022-11-30T01:46:53;102286.97;;;7.48;91.60
72685;BME280;61365;52.162;4.500;2022-11-30T01:52:07;102289.34;;;7.42;91.26
72685;BME280;61365;52.162;4.500;2022-11-30T01:54:45;102289.31;;;7.40;90.75
72685;BME280;61365;52.162;4.500;2022-11-30T01:57:35;102289.25;;;7.39;91.37
72685;BME280;61365;52.162;4.500;2022-11-30T02:00:08;102292.53;;;7.33;91.08
72685;BME280;61365;52.162;4.500;2022-11-30T02:06:04;102300.75;;;7.44;89.37
72685;BME280;61365;52.162;4.500;2022-11-30T02:08:31;102303.84;;;7.33;88.70
72685;BME280;61365;52.162;4.500;2022-11-30T02:11:03;102301.66;;;7.20;88.53
72685;BME280;61365;52.162;4.500;2022-11-30T02:16:48;102300.84;;;6.98;89.10
72685;BME280;61365;52.162;4.500;2022-11-30T02:31:19;102303.41;;;6.74;93.46
72685;BME280;61365;52.162;4.500;2022-11-30T02:33:52;102303.50;;;6.75;94.05
72685;BME280;61365;52.162;4.500;2022-11-30T02:36:21;102313.38;;;6.84;94.45
72685;BME280;61365;52.162;4.500;2022-11-30T02:38:50;102314.22;;;6.83;94.42
72685;BME280;61365;52.162;4.500;2022-11-30T02:41:17;102314.38;;;6.88;93.91
72685;BME280;61365;52.162;4.500;2022-11-30T02:43:43;102316.28;;;6.92;94.03
72685;BME280;61365;52.162;4.500;2022-11-30T02:46:16;102308.63;;;6.97;94.22
72685;BME280;61365;52.162;4.500;2022-11-30T02:51:40;102315.44;;;6.93;94.20
72685;BME280;61365;52.162;4.500;2022-11-30T02:54:09;102304.19;;;6.94;93.46
72685;BME280;61365;52.162;4.500;2022-11-30T02:56:35;102312.97;;;6.96;93.25
72685;BME280;61365;52.162;4.500;2022-11-30T02:59:01;102312.06;;;6.96;93.57
72685;BME280;61365;52.162;4.500;2022-11-30T03:01:28;102310.41;;;6.98;93.77
72685;BME280;61365;52.162;4.500;2022-11-30T03:03:54;102308.69;;;6.98;94.08
72685;BME280;61365;52.162;4.500;2022-11-30T03:06:21;102306.06;;;6.98;93.91
72685;BME280;61365;52.162;4.500;2022-11-30T03:08:47;102312.06;;;6.96;94.08
72685;BME280;61365;52.162;4.500;2022-11-30T03:11:13;102306.00;;;6.97;94.12
72685;BME280;61365;52.162;4.500;2022-11-30T03:13:40;102308.56;;;6.95;95.06
72685;BME280;61365;52.162;4.500;2022-11-30T03:16:07;102313.06;;;6.99;95.21
72685;BME280;61365;52.162;4.500;2022-11-30T03:18:35;102306.25;;;7.03;95.01
72685;BME280;61365;52.162;4.500;2022-11-30T03:21:09;102308.09;;;7.05;95.84
72685;BME280;61365;52.162;4.500;2022-11-30T03:23:37;102315.13;;;7.08;95.19
72685;BME280;61365;52.162;4.500;2022-11-30T03:26:05;102308.13;;;7.07;94.46
72685;BME280;61365;52.162;4.500;2022-11-30T03:28:34;102313.31;;;7.05;94.50
72685;BME280;61365;52.162;4.500;2022-11-30T03:31:01;102321.91;;;7.51;92.15
72685;BME280;61365;52.162;4.500;2022-11-30T03:33:28;102325.66;;;7.34;88.74
72685;BME280;61365;52.162;4.500;2022-11-30T03:36:05;102327.41;;;7.11;91.14
72685;BME280;61365;52.162;4.500;2022-11-30T03:38:34;102330.91;;;7.11;92.91
72685;BME280;61365;52.162;4.500;2022-11-30T03:41:05;102331.44;;;7.25;90.42
72685;BME280;61365;52.162;4.500;2022-11-30T03:43:33;102326.97;;;6.98;91.06
72685;BME280;61365;52.162;4.500;2022-11-30T03:46:00;102326.38;;;7.05;91.87
72685;BME280;61365;52.162;4.500;2022-11-30T03:48:27;102322.81;;;6.81;92.10
72685;BME280;61365;52.162;4.500;2022-11-30T03:50:53;102326.97;;;6.75;93.97
72685;BME280;61365;52.162;4.500;2022-11-30T03:53:21;102324.38;;;6.75;93.71
72685;BME280;61365;52.162;4.500;2022-11-30T03:55:54;102334.44;;;6.66;94.30
72685;BME280;61365;52.162;4.500;2022-11-30T03:58:22;102326.91;;;6.74;95.18
72685;BME280;61365;52.162;4.500;2022-11-30T04:00:57;102325.34;;;6.79;94.90
72685;BME280;61365;52.162;4.500;2022-11-30T04:03:30;102327.91;;;6.78;94.61
72685;BME280;61365;52.162;4.500;2022-11-30T04:05:58;102331.25;;;6.73;94.82
72685;BME280;61365;52.162;4.500;2022-11-30T04:08:25;102329.75;;;6.80;94.12
72685;BME280;61365;52.162;4.500;2022-11-30T04:10:53;102341.97;;;6.81;93.89
72685;BME280;61365;52.162;4.500;2022-11-30T04:13:21;102336.75;;;6.81;94.75
72685;BME280;61365;52.162;4.500;2022-11-30T04:15:50;102340.88;;;6.76;94.94
72685;BME280;61365;52.162;4.500;2022-11-30T04:18:19;102337.13;;;6.68;95.90
72685;BME280;61365;52.162;4.500;2022-11-30T04:20:51;102336.78;;;6.83;95.88
72685;BME280;61365;52.162;4.500;2022-11-30T04:23:19;102341.84;;;6.78;95.64
72685;BME280;61365;52.162;4.500;2022-11-30T04:25:47;102336.59;;;6.76;96.06
72685;BME280;61365;52.162;4.500;2022-11-30T04:28:15;102344.00;;;6.66;95.85
72685;BME280;61365;52.162;4.500;2022-11-30T04:30:42;102346.94;;;6.75;96.53
72685;BME280;61365;52.162;4.500;2022-11-30T04:33:11;102331.41;;;6.78;96.21
72685;BME280;61365;52.162;4.500;2022-11-30T04:35:47;102335.88;;;6.81;95.80
72685;BME280;61365;52.162;4.500;2022-11-30T04:38:16;102339.47;;;6.84;95.73
72685;BME280;61365;52.162;4.500;2022-11-30T04:40:43;102345.69;;;6.88;95.34
72685;BME280;61365;52.162;4.500;2022-11-30T04:43:10;102339.22;;;6.78;95.48
72685;BME280;61365;52.162;4.500;2022-11-30T04:45:37;102342.50;;;6.72;95.46
72685;BME280;61365;52.162;4.500;2022-11-30T04:48:05;102348.47;;;6.70;96.23
72685;BME280;61365;52.162;4.500;2022-11-30T04:50:32;102349.53;;;6.75;96.71
72685;BME280;61365;52.162;4.500;2022-11-30T04:52:59;102348.88;;;6.58;96.35
72685;BME280;61365;52.162;4.500;2022-11-30T04:55:26;102356.59;;;6.55;96.62
72685;BME280;61365;52.162;4.500;2022-11-30T04:57:52;102348.88;;;6.58;95.78
72685;BME280;61365;52.162;4.500;2022-11-30T05:00:19;102351.06;;;6.47;96.76
72685;BME280;61365;52.162;4.500;2022-11-30T05:02:46;102354.81;;;6.54;97.51
72685;BME280;61365;52.162;4.500;2022-11-30T05:05:12;102348.88;;;6.58;97.30
72685;BME280;61365;52.162;4.500;2022-11-30T05:07:38;102347.34;;;6.63;97.01
72685;BME280;61365;52.162;4.500;2022-11-30T05:10:06;102363.13;;;6.66;96.35
72685;BME280;61365;52.162;4.500;2022-11-30T05:12:33;102364.47;;;6.56;96.47
72685;BME280;61365;52.162;4.500;2022-11-30T05:15:00;102363.00;;;6.63;97.16
72685;BME280;61365;52.162;4.500;2022-11-30T05:17:26;102369.38;;;6.49;97.09
72685;BME280;61365;52.162;4.500;2022-11-30T05:19:53;102364.44;;;6.55;96.74
72685;BME280;61365;52.162;4.500;2022-11-30T05:22:19;102360.34;;;6.61;97.74
72685;BME280;61365;52.162;4.500;2022-11-30T05:24:45;102362.75;;;6.57;97.20
72685;BME280;61365;52.162;4.500;2022-11-30T05:27:12;102359.44;;;6.61;97.74
72685;BME280;61365;52.162;4.500;2022-11-30T05:29:38;102363.69;;;6.59;97.15
72685;BME280;61365;52.162;4.500;2022-11-30T05:32:04;102367.13;;;6.58;97.75
72685;BME280;61365;52.162;4.500;2022-11-30T05:34:30;102370.34;;;6.51;97.42
72685;BME280;61365;52.162;4.500;2022-11-30T05:36:57;102365.69;;;6.43;97.59
72685;BME280;61365;52.162;4.500;2022-11-30T05:39:25;102364.81;;;6.43;97.53
72685;BME280;61365;52.162;4.500;2022-11-30T05:41:51;102368.31;;;6.43;98.38
72685;BME280;61365;52.162;4.500;2022-11-30T05:44:18;102373.53;;;6.43;98.31
72685;BME280;61365;52.162;4.500;2022-11-30T05:46:44;102376.00;;;6.40;98.57
72685;BME280;61365;52.162;4.500;2022-11-30T05:49:10;102375.19;;;6.41;98.64
72685;BME280;61365;52.162;4.500;2022-11-30T05:51:38;102379.88;;;6.50;98.98
72685;BME280;61365;52.162;4.500;2022-11-30T05:54:06;102376.00;;;6.61;97.69
72685;BME280;61365;52.162;4.500;2022-11-30T05:56:33;102380.91;;;6.54;97.66
72685;BME280;61365;52.162;4.500;2022-11-30T05:58:59;102386.75;;;6.48;97.99
72685;BME280;61365;52.162;4.500;2022-11-30T06:01:27;102387.94;;;6.78;97.05
72685;BME280;61365;52.162;4.500;2022-11-30T06:03:54;102392.50;;;6.83;96.24
72685;BME280;61365;52.162;4.500;2022-11-30T06:06:21;102386.56;;;6.65;96.12
72685;BME280;61365;52.162;4.500;2022-11-30T06:08:49;102389.88;;;6.39;98.35
72685;BME280;61365;52.162;4.500;2022-11-30T06:11:16;102399.28;;;6.36;98.60
72685;BME280;61365;52.162;4.500;2022-11-30T06:13:42;102394.94;;;6.57;99.21
72685;BME280;61365;52.162;4.500;2022-11-30T06:16:08;102402.84;;;6.82;96.78
72685;BME280;61365;52.162;4.500;2022-11-30T06:18:35;102398.94;;;6.70;96.96
72685;BME280;61365;52.162;4.500;2022-11-30T06:21:05;102396.91;;;6.63;97.67
72685;BME280;61365;52.162;4.500;2022-11-30T06:23:33;102401.56;;;6.70;97.82
72685;BME280;61365;52.162;4.500;2022-11-30T06:26:09;102405.59;;;6.85;98.20
72685;BME280;61365;52.162;4.500;2022-11-30T06:28:37;102403.66;;;7.02;97.43
72685;BME280;61365;52.162;4.500;2022-11-30T06:31:05;102406.00;;;6.96;96.32
72685;BME280;61365;52.162;4.500;2022-11-30T06:33:33;102403.81;;;7.06;96.37
72685;BME280;61365;52.162;4.500;2022-11-30T06:35:59;102408.53;;;6.93;96.10
72685;BME280;61365;52.162;4.500;2022-11-30T06:38:25;102405.84;;;6.91;96.51
72685;BME280;61365;52.162;4.500;2022-11-30T06:40:52;102397.97;;;6.89;97.08
72685;BME280;61365;52.162;4.500;2022-11-30T06:43:19;102391.91;;;6.90;97.33
72685;BME280;61365;52.162;4.500;2022-11-30T06:45:46;102398.78;;;6.88;97.78
72685;BME280;61365;52.162;4.500;2022-11-30T06:48:13;102402.94;;;6.83;97.80
72685;BME280;61365;52.162;4.500;2022-11-30T06:50:39;102403.88;;;6.85;98.10
72685;BME280;61365;52.162;4.500;2022-11-30T06:53:06;102402.69;;;7.00;98.33
72685;BME280;61365;52.162;4.500;2022-11-30T06:55:32;102409.22;;;6.88;97.45
72685;BME280;61365;52.162;4.500;2022-11-30T06:58:07;102406.13;;;6.76;97.75
72685;BME280;61365;52.162;4.500;2022-11-30T07:00:35;102406.06;;;6.74;97.97
72685;BME280;61365;52.162;4.500;2022-11-30T07:03:03;102407.00;;;6.54;98.09
72685;BME280;61365;52.162;4.500;2022-11-30T07:05:39;102410.28;;;6.50;99.18
72685;BME280;61365;52.162;4.500;2022-11-30T07:08:09;102411.25;;;6.52;99.26
72685;BME280;61365;52.162;4.500;2022-11-30T07:10:42;102409.81;;;6.60;99.26
72685;BME280;61365;52.162;4.500;2022-11-30T07:13:11;102411.81;;;6.66;98.90
72685;BME280;61365;52.162;4.500;2022-11-30T07:15:40;102418.69;;;6.64;99.05
72685;BME280;61365;52.162;4.500;2022-11-30T07:18:07;102415.44;;;6.69;99.40
72685;BME280;61365;52.162;4.500;2022-11-30T07:20:34;102419.28;;;6.79;99.11
72685;BME280;61365;52.162;4.500;2022-11-30T07:23:02;102419.28;;;6.79;98.83
72685;BME280;61365;52.162;4.500;2022-11-30T07:25:49;102419.41;;;6.82;98.49
72685;BME280;61365;52.162;4.500;2022-11-30T07:28:39;102434.41;;;6.88;99.34
72685;BME280;61365;52.162;4.500;2022-11-30T07:31:19;102434.63;;;6.93;98.92
72685;BME280;61365;52.162;4.500;2022-11-30T07:33:57;102439.88;;;6.94;98.00
72685;BME280;61365;52.162;4.500;2022-11-30T07:36:27;102433.66;;;6.90;98.25
72685;BME280;61365;52.162;4.500;2022-11-30T07:38:55;102438.06;;;6.91;98.41
72685;BME280;61365;52.162;4.500;2022-11-30T07:41:21;102438.16;;;6.95;98.02
72685;BME280;61365;52.162;4.500;2022-11-30T07:43:47;102442.78;;;7.02;98.27
72685;BME280;61365;52.162;4.500;2022-11-30T07:46:14;102447.78;;;6.96;97.72
72685;BME280;61365;52.162;4.500;2022-11-30T07:48:43;102444.97;;;6.91;97.53
72685;BME280;61365;52.162;4.500;2022-11-30T07:51:18;102444.16;;;6.92;97.50
72685;BME280;61365;52.162;4.500;2022-11-30T07:53:47;102451.00;;;6.88;96.95
72685;BME280;61365;52.162;4.500;2022-11-30T07:56:18;102456.13;;;6.87;96.92
72685;BME280;61365;52.162;4.500;2022-11-30T07:58:46;102455.03;;;6.82;97.17
72685;BME280;61365;52.162;4.500;2022-11-30T08:01:16;102451.00;;;6.88;97.43
72685;BME280;61365;52.162;4.500;2022-11-30T08:03:47;102466.56;;;6.87;97.55
72685;BME280;61365;52.162;4.500;2022-11-30T08:06:22;102461.34;;;6.87;97.15
72685;BME280;61365;52.162;4.500;2022-11-30T08:08:51;102468.84;;;7.00;96.87
72685;BME280;61365;52.162;4.500;2022-11-30T08:11:26;102466.25;;;7.00;96.25
72685;BME280;61365;52.162;4.500;2022-11-30T08:13:55;102470.94;;;7.09;96.24
72685;BME280;61365;52.162;4.500;2022-11-30T08:16:24;102467.91;;;7.21;95.98
72685;BME280;61365;52.162;4.500;2022-11-30T08:18:54;102464.59;;;7.25;95.26
72685;BME280;61365;52.162;4.500;2022-11-30T08:21:22;102478.06;;;7.36;95.61
72685;BME280;61365;52.162;4.500;2022-11-30T08:23:54;102480.13;;;7.45;95.09
72685;BME280;61365;52.162;4.500;2022-11-30T08:28:50;102482.38;;;7.35;94.10
72685;BME280;61365;52.162;4.500;2022-11-30T08:31:21;102484.47;;;7.44;94.35
72685;BME280;61365;52.162;4.500;2022-11-30T08:33:56;102482.56;;;7.63;94.60
72685;BME280;61365;52.162;4.500;2022-11-30T08:36:29;102483.41;;;7.62;93.55
72685;BME280;61365;52.162;4.500;2022-11-30T08:38:57;102486.28;;;7.70;94.22
72685;BME280;61365;52.162;4.500;2022-11-30T08:41:24;102488.94;;;7.71;93.21
72685;BME280;61365;52.162;4.500;2022-11-30T08:43:52;102482.19;;;7.76;93.41
72685;BME280;61365;52.162;4.500;2022-11-30T08:46:21;102488.25;;;7.75;92.69
72685;BME280;61365;52.162;4.500;2022-11-30T08:48:49;102492.47;;;7.72;92.57
72685;BME280;61365;52.162;4.500;2022-11-30T08:51:17;102488.25;;;7.75;93.67
72685;BME280;61365;52.162;4.500;2022-11-30T08:53:45;102495.00;;;7.70;93.13
72685;BME280;61365;52.162;4.500;2022-11-30T08:56:14;102492.75;;;7.79;93.10
72685;BME280;61365;52.162;4.500;2022-11-30T08:58:43;102496.19;;;7.78;93.31
72685;BME280;61365;52.162;4.500;2022-11-30T09:01:21;102499.53;;;7.74;92.71
72685;BME280;61365;52.162;4.500;2022-11-30T09:03:52;102497.81;;;7.75;92.42
72685;BME280;61365;52.162;4.500;2022-11-30T09:06:27;102505.03;;;7.82;93.58
72685;BME280;61365;52.162;4.500;2022-11-30T09:08:56;102502.34;;;7.79;92.81
72685;BME280;61365;52.162;4.500;2022-11-30T09:11:31;102499.63;;;7.77;93.45
72685;BME280;61365;52.162;4.500;2022-11-30T09:14:01;102502.00;;;7.71;93.46
72685;BME280;61365;52.162;4.500;2022-11-30T09:16:30;102508.84;;;7.90;93.58
72685;BME280;61365;52.162;4.500;2022-11-30T09:18:56;102513.50;;;7.99;92.79
72685;BME280;61365;52.162;4.500;2022-11-30T09:21:23;102521.47;;;8.02;92.67
72685;BME280;61365;52.162;4.500;2022-11-30T09:23:51;102521.69;;;8.08;92.27
72685;BME280;61365;52.162;4.500;2022-11-30T09:26:20;102530.53;;;8.12;92.38
72685;BME280;61365;52.162;4.500;2022-11-30T09:28:48;102526.25;;;8.14;92.13
72685;BME280;61365;52.162;4.500;2022-11-30T09:31:20;102522.25;;;8.00;90.88
72685;BME280;61365;52.162;4.500;2022-11-30T09:33:48;102523.00;;;7.97;91.28
72685;BME280;61365;52.162;4.500;2022-11-30T09:36:18;102530.38;;;8.07;91.70
72685;BME280;61365;52.162;4.500;2022-11-30T09:38:46;102525.50;;;8.17;91.12
72685;BME280;61365;52.162;4.500;2022-11-30T09:47:28;102530.53;;;8.36;90.76
72685;BME280;61365;52.162;4.500;2022-11-30T09:50:15;102536.63;;;8.37;90.00
72685;BME280;61365;52.162;4.500;2022-11-30T09:52:48;102541.81;;;8.60;89.68
72685;BME280;61365;52.162;4.500;2022-11-30T09:55:36;102547.00;;;8.58;88.92
72685;BME280;61365;52.162;4.500;2022-11-30T09:58:09;102541.94;;;8.63;88.59
72685;BME280;61365;52.162;4.500;2022-11-30T10:00:46;102544.81;;;8.70;88.34
72685;BME280;61365;52.162;4.500;2022-11-30T10:03:12;102546.19;;;8.85;87.36
72685;BME280;61365;52.162;4.500;2022-11-30T10:05:47;102545.22;;;8.83;86.52
72685;BME280;61365;52.162;4.500;2022-11-30T10:14:22;102544.88;;;8.72;87.40
72685;BME280;61365;52.162;4.500;2022-11-30T10:19:52;102538.00;;;8.76;88.36
72685;BME280;61365;52.162;4.500;2022-11-30T10:28:53;102529.56;;;8.84;87.94
72685;BME280;61365;52.162;4.500;2022-11-30T10:31:34;102535.25;;;8.71;87.46
72685;BME280;61365;52.162;4.500;2022-11-30T10:37:08;102526.22;;;8.89;88.32
72685;BME280;61365;52.162;4.500;2022-11-30T10:43:19;102524.00;;;9.01;87.55
72685;BME280;61365;52.162;4.500;2022-11-30T10:45:48;102522.47;;;8.80;88.67
72685;BME280;61365;52.162;4.500;2022-11-30T10:48:26;102529.06;;;8.69;88.63
72685;BME280;61365;52.162;4.500;2022-11-30T10:50:59;102525.97;;;8.81;88.58
72685;BME280;61365;52.162;4.500;2022-11-30T10:53:28;102521.22;;;8.96;88.74
72685;BME280;61365;52.162;4.500;2022-11-30T10:56:05;102532.72;;;9.00;89.28
72685;BME280;61365;52.162;4.500;2022-11-30T10:58:37;102523.28;;;9.05;88.62
72685;BME280;61365;52.162;4.500;2022-11-30T11:01:29;102517.72;;;9.52;87.69
72685;BME280;61365;52.162;4.500;2022-11-30T11:04:17;102528.28;;;9.54;85.77
72685;BME280;61365;52.162;4.500;2022-11-30T11:06:53;102521.41;;;9.88;84.78
72685;BME280;61365;52.162;4.500;2022-11-30T11:09:28;102517.06;;;9.88;83.38
72685;BME280;61365;52.162;4.500;2022-11-30T11:12:13;102517.31;;;9.98;84.33
72685;BME280;61365;52.162;4.500;2022-11-30T11:15:26;102519.56;;;9.55;80.63
72685;BME280;61365;52.162;4.500;2022-11-30T11:18:30;102520.59;;;9.60;79.87
72685;BME280;61365;52.162;4.500;2022-11-30T11:23:35;102512.91;;;9.97;77.43
72685;BME280;61365;52.162;4.500;2022-11-30T11:26:25;102511.94;;;9.63;80.16
72685;BME280;61365;52.162;4.500;2022-11-30T11:28:56;102513.81;;;9.67;79.01
72685;BME280;61365;52.162;4.500;2022-11-30T11:31:38;102515.41;;;9.61;77.83
72685;BME280;61365;52.162;4.500;2022-11-30T11:42:44;102506.19;;;8.89;79.07
72685;BME280;61365;52.162;4.500;2022-11-30T11:45:22;102501.88;;;8.91;78.30
72685;BME280;61365;52.162;4.500;2022-11-30T11:47:59;102508.69;;;9.13;77.49
72685;BME280;61365;52.162;4.500;2022-11-30T11:50:30;102509.00;;;9.52;75.98
72685;BME280;61365;52.162;4.500;2022-11-30T11:53:20;102505.03;;;9.37;78.82
72685;BME280;61365;52.162;4.500;2022-11-30T11:55:50;102509.88;;;9.52;77.88
72685;BME280;61365;52.162;4.500;2022-11-30T11:58:39;102510.56;;;9.75;77.55
72685;BME280;61365;52.162;4.500;2022-11-30T12:01:09;102502.28;;;9.92;77.01
72685;BME280;61365;52.162;4.500;2022-11-30T12:03:59;102497.50;;;9.77;77.74
72685;BME280;61365;52.162;4.500;2022-11-30T12:06:38;102499.56;;;9.87;75.80
72685;BME280;61365;52.162;4.500;2022-11-30T12:09:15;102500.56;;;9.93;75.07
72685;BME280;61365;52.162;4.500;2022-11-30T12:11:49;102493.69;;;9.37;77.92
72685;BME280;61365;52.162;4.500;2022-11-30T12:14:17;102494.66;;;9.40;78.15
72685;BME280;61365;52.162;4.500;2022-11-30T12:26:24;102509.63;;;9.73;76.53
72685;BME280;61365;52.162;4.500;2022-11-30T12:29:21;102515.69;;;9.71;75.94
72685;BME280;61365;52.162;4.500;2022-11-30T12:32:02;102509.97;;;9.86;75.13
72685;BME280;61365;52.162;4.500;2022-11-30T12:43:50;102515.44;;;9.63;75.75
72685;BME280;61365;52.162;4.500;2022-11-30T12:46:47;102510.25;;;9.95;75.88
72685;BME280;61365;52.162;4.500;2022-11-30T12:52:59;102520.06;;;10.02;74.85
72685;BME280;61365;52.162;4.500;2022-11-30T12:58:24;102518.06;;;9.34;80.01
72685;BME280;61365;52.162;4.500;2022-11-30T13:01:32;102507.56;;;9.34;80.89
72685;BME280;61365;52.162;4.500;2022-11-30T13:04:19;102514.34;;;9.55;81.31
72685;BME280;61365;52.162;4.500;2022-11-30T13:07:07;102520.69;;;9.63;78.85
72685;BME280;61365;52.162;4.500;2022-11-30T13:09:49;102519.19;;;9.42;78.60
72685;BME280;61365;52.162;4.500;2022-11-30T13:12:34;102519.84;;;9.64;76.22
72685;BME280;61365;52.162;4.500;2022-11-30T13:15:12;102523.03;;;9.83;75.30
72685;BME280;61365;52.162;4.500;2022-11-30T13:17:44;102526.91;;;9.97;74.51
72685;BME280;61365;52.162;4.500;2022-11-30T13:20:28;102532.47;;;10.08;73.89
72685;BME280;61365;52.162;4.500;2022-11-30T13:23:20;102528.97;;;9.48;76.61
72685;BME280;61365;52.162;4.500;2022-11-30T13:31:30;102535.25;;;9.84;76.15
72685;BME280;61365;52.162;4.500;2022-11-30T13:34:03;102532.97;;;9.95;74.65
72685;BME280;61365;52.162;4.500;2022-11-30T13:36:38;102535.03;;;9.76;75.29
72685;BME280;61365;52.162;4.500;2022-11-30T13:41:44;102538.69;;;9.52;78.36
72685;BME280;61365;52.162;4.500;2022-11-30T13:44:33;102538.44;;;9.43;78.23
72685;BME280;61365;52.162;4.500;2022-11-30T13:47:02;102537.16;;;9.30;79.88
72685;BME280;61365;52.162;4.500;2022-11-30T13:49:34;102532.16;;;9.38;80.07
72685;BME280;61365;52.162;4.500;2022-11-30T13:52:03;102531.44;;;9.43;79.58
72685;BME280;61365;52.162;4.500;2022-11-30T13:59:56;102546.94;;;9.36;80.26
72685;BME280;61365;52.162;4.500;2022-11-30T14:10:40;102553.47;;;9.50;79.14
72685;BME280;61365;52.162;4.500;2022-11-30T14:23:53;102548.25;;;9.50;79.47
72685;BME280;61365;52.162;4.500;2022-11-30T14:26:37;102550.84;;;9.49;79.27
72685;BME280;61365;52.162;4.500;2022-11-30T14:31:48;102556.31;;;9.56;78.10
72685;BME280;61365;52.162;4.500;2022-11-30T14:34:28;102559.06;;;9.61;77.95
72685;BME280;61365;52.162;4.500;2022-11-30T14:37:25;102558.47;;;9.41;78.14
72685;BME280;61365;52.162;4.500;2022-11-30T14:40:01;102557.28;;;9.31;79.03
72685;BME280;61365;52.162;4.500;2022-11-30T14:42:31;102553.00;;;9.35;78.67
72685;BME280;61365;52.162;4.500;2022-11-30T14:44:59;102554.00;;;9.38;78.15
72685;BME280;61365;52.162;4.500;2022-11-30T14:47:31;102553.66;;;9.27;78.96
72685;BME280;61365;52.162;4.500;2022-11-30T14:50:02;102553.81;;;9.05;80.50
72685;BME280;61365;52.162;4.500;2022-11-30T14:58:39;102554.69;;;9.32;80.03
72685;BME280;61365;52.162;4.500;2022-11-30T15:01:26;102555.03;;;9.43;78.93
72685;BME280;61365;52.162;4.500;2022-11-30T15:04:03;102556.88;;;9.19;80.26
72685;BME280;61365;52.162;4.500;2022-11-30T15:06:37;102553.88;;;9.06;81.35
72685;BME280;61365;52.162;4.500;2022-11-30T15:09:14;102560.56;;;9.25;79.51
72685;BME280;61365;52.162;4.500;2022-11-30T15:11:45;102555.53;;;9.04;80.71
72685;BME280;61365;52.162;4.500;2022-11-30T15:14:13;102564.06;;;8.98;81.40
72685;BME280;61365;52.162;4.500;2022-11-30T15:17:12;102559.53;;;8.93;81.11
72685;BME280;61365;52.162;4.500;2022-11-30T15:19:46;102566.06;;;8.80;81.85
72685;BME280;61365;52.162;4.500;2022-11-30T15:22:22;102565.38;;;8.85;82.36
72685;BME280;61365;52.162;4.500;2022-11-30T15:24:49;102564.53;;;8.86;82.49
72685;BME280;61365;52.162;4.500;2022-11-30T15:27:20;102569.41;;;9.01;81.31
72685;BME280;61365;52.162;4.500;2022-11-30T15:29:57;102565.19;;;9.05;80.81
72685;BME280;61365;52.162;4.500;2022-11-30T15:32:25;102574.88;;;9.09;80.40
72685;BME280;61365;52.162;4.500;2022-11-30T15:34:57;102564.59;;;8.62;82.59
72685;BME280;61365;52.162;4.500;2022-11-30T15:37:32;102568.91;;;8.60;83.28
72685;BME280;61365;52.162;4.500;2022-11-30T15:40:05;102561.91;;;8.61;83.97
72685;BME280;61365;52.162;4.500;2022-11-30T15:42:35;102571.34;;;8.55;84.96